Time;durP1;ratioP1;P1;durP2;ratioP2;P2;SDS_P1;SDS_P2;PMS_P1;PMS_P2;Temp;Humidity;BMP_temperature;BMP_pressure;BME280_temperature;BME280_humidity;BME280_pressure;Samples;Min_cycle;Max_cycle;Signal;HPM_P1;HPM_P2
2021/07/12 00:00:54;;;;;;;2.83;2.35;;;;;;;17.37;88.15;96155.22;5037087;28;20215;-69
2021/07/12 00:03:21;;;;;;;6.57;3.55;;;;;;;17.38;88.00;96156.84;5038218;28;20520;-68
2021/07/12 00:05:48;;;;;;;5.03;2.40;;;;;;;17.21;88.08;96149.63;5037096;28;20946;-70
2021/07/12 00:08:14;;;;;;;3.83;2.60;;;;;;;17.20;88.49;96146.16;5036053;28;20197;-69
2021/07/12 00:10:41;;;;;;;6.40;2.90;;;;;;;17.14;87.14;96148.88;5036391;28;20209;-68
2021/07/12 00:13:09;;;;;;;4.47;2.50;;;;;;;17.07;87.59;96145.47;5037488;28;20278;-70
2021/07/12 00:15:36;;;;;;;7.70;2.85;;;;;;;17.07;87.96;96142.81;5036690;28;20215;-69
2021/07/12 00:18:02;;;;;;;6.43;2.70;;;;;;;17.06;87.31;96140.38;5036051;28;20208;-68
2021/07/12 00:20:29;;;;;;;4.53;2.72;;;;;;;17.10;87.60;96140.50;5037198;28;20225;-69
2021/07/12 00:22:57;;;;;;;5.75;3.00;;;;;;;17.09;87.90;96130.06;5036931;28;20197;-69
2021/07/12 00:25:25;;;;;;;4.65;2.85;;;;;;;17.22;87.27;96128.13;5036768;28;20237;-70
2021/07/12 00:27:52;;;;;;;4.32;2.88;;;;;;;17.17;88.36;96127.97;5036209;28;20211;-68
2021/07/12 00:30:22;;;;;;;11.90;3.30;;;;;;;17.20;88.97;96127.50;5036610;28;20225;-69
2021/07/12 00:32:50;;;;;;;5.75;2.70;;;;;;;17.42;87.43;96131.41;5036752;28;20232;-70
2021/07/12 00:35:17;;;;;;;7.97;2.63;;;;;;;17.47;87.09;96130.75;5037244;28;20208;-69
2021/07/12 00:37:44;;;;;;;8.60;3.10;;;;;;;17.46;86.65;96111.28;5036001;28;20573;-69
2021/07/12 00:40:14;;;;;;;5.65;2.80;;;;;;;17.48;87.36;96119.06;5035839;28;20236;-69
2021/07/12 00:42:41;;;;;;;6.90;3.08;;;;;;;17.18;88.68;96112.78;5036712;28;20201;-70
2021/07/12 00:45:11;;;;;;;8.60;2.80;;;;;;;17.27;88.11;96114.16;5036414;28;20572;-69
2021/07/12 00:47:39;;;;;;;7.03;3.25;;;;;;;17.17;89.22;96106.66;5035980;28;20205;-69
2021/07/12 00:50:08;;;;;;;3.63;2.80;;;;;;;17.39;87.15;96105.22;5040045;28;20228;-69
2021/07/12 00:52:35;;;;;;;6.05;2.83;;;;;;;17.27;86.31;96099.00;5040708;28;20688;-68
2021/07/12 00:55:13;;;;;;;11.73;2.80;;;;;;;17.08;87.94;96097.31;5040636;28;20201;-68
2021/07/12 00:57:40;;;;;;;3.25;2.58;;;;;;;17.14;86.42;96091.13;5039932;28;20212;-69
2021/07/12 01:00:08;;;;;;;7.47;2.17;;;;;;;17.02;85.20;96093.91;5040048;28;20724;-69
2021/07/12 01:02:34;;;;;;;7.18;2.55;;;;;;;17.14;84.94;96080.47;5040313;28;20197;-68
2021/07/12 01:05:04;;;;;;;4.25;2.70;;;;;;;16.97;86.87;96088.41;5040661;28;20220;-69
2021/07/12 01:07:31;;;;;;;3.55;2.75;;;;;;;17.05;87.19;96082.81;5040172;28;20688;-69
2021/07/12 01:09:57;;;;;;;5.90;2.90;;;;;;;17.03;87.46;96079.56;5039934;28;20236;-70
2021/07/12 01:12:34;;;;;;;6.15;2.58;;;;;;;17.09;87.04;96082.16;5039905;28;20208;-70
2021/07/12 01:15:07;;;;;;;7.18;2.67;;;;;;;17.11;85.03;96072.09;5041353;28;20695;-69
2021/07/12 01:17:45;;;;;;;3.65;2.70;;;;;;;17.27;85.89;96075.03;5039333;28;20216;-70
2021/07/12 01:21:05;;;;;;;8.15;2.28;;;;;;;17.26;82.37;96068.06;5039522;28;21457;-70
2021/07/12 01:23:43;;;;;;;2.50;2.05;;;;;;;17.21;82.30;96065.22;5039893;28;20353;-68
2021/07/12 01:26:39;;;;;;;7.60;2.35;;;;;;;17.09;84.09;96052.84;5040441;28;20201;-68
2021/07/12 01:29:30;;;;;;;3.70;2.17;;;;;;;17.08;82.82;96053.88;5036161;28;20664;-68
2021/07/12 01:32:36;;;;;;;4.97;2.08;;;;;;;16.96;82.84;96054.88;5039435;28;20212;-69
2021/07/12 01:35:05;;;;;;;4.57;2.20;;;;;;;17.07;82.62;96046.13;5039713;28;20205;-69
2021/07/12 01:37:40;;;;;;;5.88;2.70;;;;;;;17.00;85.40;96048.84;5039303;28;20216;-68
2021/07/12 01:40:10;;;;;;;4.80;1.80;;;;;;;16.97;82.23;96051.13;5040026;28;20314;-70
2021/07/12 01:42:42;;;;;;;8.45;2.80;;;;;;;16.89;82.20;96046.09;5039718;28;20204;-69
2021/07/12 01:45:11;;;;;;;7.70;1.60;;;;;;;16.88;82.20;96039.16;5039902;28;20278;-69
2021/07/12 01:47:50;;;;;;;9.05;2.90;;;;;;;16.86;81.72;96049.22;5038987;28;20390;-69
2021/07/12 01:50:26;;;;;;;6.18;1.90;;;;;;;16.81;82.52;96036.56;5039332;28;20326;-69
2021/07/12 01:53:04;;;;;;;6.63;2.05;;;;;;;16.73;82.47;96038.72;5039943;28;20236;-69
2021/07/12 01:55:37;;;;;;;3.25;2.33;;;;;;;16.57;82.97;96039.25;5039679;28;21153;-70
2021/07/12 01:58:14;;;;;;;3.97;2.58;;;;;;;16.56;84.40;96040.31;5038383;28;21113;-69
2021/07/12 02:00:46;;;;;;;5.70;2.70;;;;;;;16.52;85.42;96041.75;5039608;28;20219;-69
2021/07/12 02:03:16;;;;;;;2.65;2.28;;;;;;;16.70;82.77;96025.81;5039360;28;20201;-69
2021/07/12 02:05:45;;;;;;;6.50;2.78;;;;;;;16.74;82.94;96022.53;5039246;28;20681;-69
2021/07/12 02:08:15;;;;;;;4.60;2.30;;;;;;;16.75;83.75;96026.81;5038533;28;20208;-69
2021/07/12 02:10:44;;;;;;;4.13;2.42;;;;;;;16.69;82.76;96022.34;5039154;28;20236;-69
2021/07/12 02:13:12;;;;;;;2.72;2.10;;;;;;;16.22;84.36;96027.44;5039019;28;20224;-68
2021/07/12 02:15:39;;;;;;;3.88;2.92;;;;;;;16.25;85.94;96037.66;5039437;28;20209;-69
2021/07/12 02:18:07;;;;;;;6.80;3.58;;;;;;;16.29;88.14;96036.22;5038838;28;20201;-68
2021/07/12 02:20:38;;;;;;;7.85;3.05;;;;;;;16.35;86.89;96039.88;5039051;28;20287;-69
2021/07/12 02:23:06;;;;;;;5.15;2.90;;;;;;;16.50;85.61;96038.50;5039203;28;20208;-69
2021/07/12 02:25:33;;;;;;;4.30;2.40;;;;;;;16.29;84.06;96044.19;5036314;28;20220;-69
2021/07/12 02:28:01;;;;;;;7.70;2.10;;;;;;;16.37;82.79;96035.13;5037863;28;20224;-69
2021/07/12 02:30:29;;;;;;;6.97;2.60;;;;;;;16.28;84.30;96050.56;5038857;28;20229;-69
2021/07/12 02:32:57;;;;;;;6.72;3.00;;;;;;;16.13;85.16;96038.59;5039835;28;20225;-68
2021/07/12 02:35:24;;;;;;;6.45;2.92;;;;;;;16.27;85.15;96048.13;5038757;28;20224;-69
2021/07/12 02:37:53;;;;;;;6.18;3.67;;;;;;;16.07;85.13;96053.53;5037837;28;20213;-69
2021/07/12 02:40:20;;;;;;;7.90;3.50;;;;;;;16.06;85.76;96051.09;5038611;28;20225;-69
2021/07/12 02:42:50;;;;;;;6.35;3.72;;;;;;;16.13;87.17;96044.69;5038950;28;20216;-69
2021/07/12 02:45:18;;;;;;;5.72;3.65;;;;;;;16.20;86.89;96037.47;5038593;28;20201;-69
2021/07/12 02:47:45;;;;;;;6.32;2.63;;;;;;;16.38;85.26;96040.25;5038438;28;20216;-69
2021/07/12 02:50:14;;;;;;;7.72;3.00;;;;;;;16.25;84.68;96042.97;5038706;28;20217;-69
2021/07/12 02:52:44;;;;;;;7.03;3.03;;;;;;;16.36;84.67;96050.28;5038115;28;21263;-70
2021/07/12 02:55:13;;;;;;;5.60;2.58;;;;;;;16.24;85.74;96049.34;5038370;28;20216;-70
2021/07/12 02:57:40;;;;;;;5.25;3.00;;;;;;;16.49;84.02;96042.19;5037741;28;20255;-70
2021/07/12 03:00:09;;;;;;;12.82;2.95;;;;;;;16.44;85.33;96034.06;5038080;28;20225;-69
2021/07/12 03:02:36;;;;;;;4.80;3.50;;;;;;;16.66;84.81;96027.31;5038345;28;20216;-68
2021/07/12 03:05:02;;;;;;;9.68;3.60;;;;;;;16.76;84.95;96033.78;5038739;28;20212;-70
2021/07/12 03:07:33;;;;;;;17.45;3.97;;;;;;;16.72;85.86;96039.75;5037702;28;20204;-70
2021/07/12 03:10:03;;;;;;;25.90;4.30;;;;;;;16.56;89.00;96046.44;5037785;28;20240;-68
2021/07/12 03:12:36;;;;;;;29.17;4.63;;;;;;;16.43;90.72;96051.03;5037507;28;21062;-68
2021/07/12 03:15:07;;;;;;;23.85;3.97;;;;;;;16.34;89.90;96052.34;5038540;28;20229;-69
2021/07/12 03:17:36;;;;;;;12.63;3.80;;;;;;;16.41;90.83;96047.78;5037291;28;20209;-69
2021/07/12 03:20:06;;;;;;;13.18;4.07;;;;;;;16.44;91.23;96044.69;5037731;28;20719;-69
2021/07/12 03:22:35;;;;;;;9.43;3.95;;;;;;;16.57;90.80;96034.75;5037955;28;20680;-69
2021/07/12 03:25:04;;;;;;;8.90;4.13;;;;;;;16.50;90.79;96027.88;5037321;28;20209;-68
2021/07/12 03:27:33;;;;;;;5.97;3.45;;;;;;;16.31;90.41;96038.69;5037223;28;20209;-68
2021/07/12 03:30:02;;;;;;;12.40;3.50;;;;;;;16.46;89.36;96028.50;5037627;28;20236;-69
2021/07/12 03:32:31;;;;;;;13.00;3.15;;;;;;;16.54;88.11;96034.38;5037793;28;20201;-69
2021/07/12 03:34:58;;;;;;;6.50;2.88;;;;;;;16.67;87.55;96037.72;5037576;28;20221;-70
2021/07/12 03:37:26;;;;;;;11.02;3.45;;;;;;;16.62;88.03;96036.75;5037228;28;20715;-70
2021/07/12 03:39:53;;;;;;;12.55;3.60;;;;;;;16.59;88.57;96037.19;5037473;28;20220;-69
2021/07/12 03:42:21;;;;;;;12.15;3.70;;;;;;;16.57;89.59;96040.09;5037236;28;20205;-68
2021/07/12 03:44:51;;;;;;;11.63;4.03;;;;;;;16.65;89.51;96023.84;5038293;28;20255;-70
2021/07/12 03:47:26;;;;;;;3.75;3.08;;;;;;;16.63;89.38;96022.44;5036679;28;20209;-68
2021/07/12 03:49:54;;;;;;;6.60;3.40;;;;;;;16.58;89.99;96017.75;5036761;28;20243;-69
2021/07/12 03:52:22;;;;;;;15.57;3.10;;;;;;;16.57;89.57;96015.31;5037391;28;20248;-70
2021/07/12 03:54:48;;;;;;;3.63;2.83;;;;;;;16.49;90.52;96015.59;5037646;28;20233;-69
2021/07/12 03:57:15;;;;;;;4.30;3.13;;;;;;;16.65;89.77;96015.84;5036628;28;20415;-70
2021/07/12 03:59:42;;;;;;;6.00;3.35;;;;;;;16.48;91.50;96024.59;5037248;28;20225;-69
2021/07/12 04:02:10;;;;;;;16.48;3.63;;;;;;;16.59;92.03;96021.25;5037000;28;20205;-70
2021/07/12 04:04:36;;;;;;;39.10;4.57;;;;;;;16.52;92.68;96018.66;5037136;28;20566;-69
2021/07/12 04:07:03;;;;;;;20.13;3.92;;;;;;;16.56;93.55;96013.72;5036969;28;20205;-68
2021/07/12 04:09:29;;;;;;;18.27;4.47;;;;;;;16.48;94.41;96014.78;5037053;28;20233;-69
2021/07/12 04:11:57;;;;;;;15.88;4.00;;;;;;;16.53;93.81;96004.31;5036644;28;21033;-70
2021/07/12 04:14:23;;;;;;;10.45;4.00;;;;;;;16.57;93.45;96015.31;5036965;28;20334;-69
2021/07/12 04:16:50;;;;;;;14.90;3.70;;;;;;;16.74;92.81;96008.41;5037058;28;20201;-69
2021/07/12 04:19:17;;;;;;;5.88;3.30;;;;;;;16.83;92.30;96001.78;5036010;28;20224;-69
2021/07/12 04:21:44;;;;;;;5.68;3.05;;;;;;;16.96;91.59;96007.75;5036655;28;20684;-69
2021/07/12 04:24:10;;;;;;;3.10;2.80;;;;;;;17.03;90.20;96008.50;5037330;28;20200;-69
2021/07/12 04:26:37;;;;;;;5.28;2.90;;;;;;;17.13;89.54;96001.63;5037102;28;20209;-70
2021/07/12 04:29:06;;;;;;;5.68;3.22;;;;;;;17.02;90.11;96003.38;5035924;28;20244;-68
2021/07/12 04:31:33;;;;;;;3.17;2.65;;;;;;;17.00;90.08;95997.47;5036294;28;20201;-69
2021/07/12 04:33:59;;;;;;;7.05;2.88;;;;;;;16.89;90.64;95996.38;5036782;28;20235;-69
2021/07/12 04:36:27;;;;;;;4.22;3.38;;;;;;;16.89;91.19;95998.19;5036909;28;20643;-69
2021/07/12 04:38:53;;;;;;;3.92;3.38;;;;;;;16.92;91.52;95985.28;5035805;28;20225;-68
2021/07/12 04:41:20;;;;;;;7.20;3.75;;;;;;;17.02;90.50;95984.75;5036752;28;20209;-68
2021/07/12 04:43:46;;;;;;;7.70;3.45;;;;;;;17.05;90.47;95984.31;5036367;28;20212;-69
2021/07/12 04:46:13;;;;;;;6.40;3.35;;;;;;;17.03;90.56;95984.53;5036672;28;20236;-69
2021/07/12 04:48:40;;;;;;;4.85;3.55;;;;;;;17.10;91.01;95986.06;5036359;28;20225;-69
2021/07/12 04:51:06;;;;;;;5.05;3.55;;;;;;;17.22;91.10;95988.81;5036425;28;20296;-70
2021/07/12 04:53:34;;;;;;;6.65;3.30;;;;;;;17.25;90.91;95993.72;5036449;28;20212;-69
2021/07/12 04:56:02;;;;;;;10.27;3.47;;;;;;;17.45;90.29;95983.63;5037626;28;20205;-69
2021/07/12 04:58:31;;;;;;;12.20;3.30;;;;;;;17.35;90.25;95981.50;5035850;28;20228;-69
2021/07/12 05:00:58;;;;;;;7.80;3.38;;;;;;;17.32;89.96;95970.47;5036204;28;20205;-69
2021/07/12 05:03:30;;;;;;;6.90;3.72;;;;;;;17.21;91.19;95974.69;5036877;28;20249;-70
2021/07/12 05:05:57;;;;;;;7.28;3.85;;;;;;;17.33;90.72;95978.25;5036475;28;20774;-70
2021/07/12 05:08:24;;;;;;;5.13;3.78;;;;;;;17.65;90.02;95984.97;5035554;28;20228;-69
2021/07/12 05:10:52;;;;;;;7.88;3.95;;;;;;;17.60;90.02;95984.84;5036491;28;20220;-69
2021/07/12 05:13:19;;;;;;;7.28;3.45;;;;;;;17.86;89.19;95984.50;5036655;28;20217;-70
2021/07/12 05:15:45;;;;;;;6.57;4.32;;;;;;;17.82;89.62;95983.31;5036335;28;20225;-69
2021/07/12 05:18:12;;;;;;;5.55;3.78;;;;;;;17.75;89.31;95987.91;5034451;28;20205;-70
2021/07/12 05:20:38;;;;;;;6.05;3.70;;;;;;;17.88;89.60;95972.56;5035416;28;20216;-70
2021/07/12 05:23:05;;;;;;;8.13;3.88;;;;;;;18.00;89.46;95975.25;5035726;28;20221;-70
2021/07/12 05:25:32;;;;;;;5.65;4.20;;;;;;;18.08;89.86;95978.38;5035771;28;20201;-70
2021/07/12 05:28:00;;;;;;;9.45;3.95;;;;;;;18.25;88.90;95978.56;5035124;28;20579;-72
2021/07/12 05:30:26;;;;;;;9.55;4.10;;;;;;;18.31;88.52;95989.13;5035487;28;20225;-70
2021/07/12 05:32:53;;;;;;;6.60;3.63;;;;;;;18.55;88.40;95974.78;5035519;28;20213;-70
2021/07/12 05:35:19;;;;;;;5.50;3.97;;;;;;;18.69;88.11;95981.50;5038190;28;20233;-70
2021/07/12 05:37:45;;;;;;;8.20;3.88;;;;;;;18.60;88.46;95986.38;5039207;28;20213;-70
2021/07/12 05:40:12;;;;;;;5.20;4.13;;;;;;;18.70;88.64;95983.09;5039664;28;20221;-70
2021/07/12 05:42:39;;;;;;;5.05;4.10;;;;;;;18.84;88.40;95988.00;5039645;28;20212;-70
2021/07/12 05:45:09;;;;;;;6.70;4.55;;;;;;;19.03;88.54;95989.47;5039632;28;20736;-70
2021/07/12 05:47:35;;;;;;;7.25;4.82;;;;;;;18.91;89.48;95991.34;5038980;28;20201;-70
2021/07/12 05:50:02;;;;;;;6.00;4.88;;;;;;;19.00;88.85;95973.91;5039929;28;20231;-70
2021/07/12 05:52:31;;;;;;;5.68;4.47;;;;;;;19.19;87.95;95981.56;5039879;28;20205;-70
2021/07/12 05:54:58;;;;;;;5.40;4.20;;;;;;;19.22;87.96;95974.94;5038866;28;20232;-70
2021/07/12 05:57:24;;;;;;;8.20;5.05;;;;;;;19.17;87.76;95985.50;5038547;28;20216;-70
2021/07/12 05:59:51;;;;;;;6.63;4.90;;;;;;;19.02;88.84;95982.50;5039940;28;20225;-70
2021/07/12 06:02:19;;;;;;;8.38;4.75;;;;;;;19.13;87.95;95987.03;5039394;28;20205;-70
2021/07/12 06:04:46;;;;;;;7.50;5.07;;;;;;;19.25;87.23;95988.63;5039272;28;20220;-70
2021/07/12 06:07:13;;;;;;;7.70;5.38;;;;;;;19.22;87.24;95983.78;5038556;28;20909;-70
2021/07/12 06:09:39;;;;;;;8.23;5.38;;;;;;;19.08;90.13;95973.56;5038924;28;20229;-70
2021/07/12 06:12:06;;;;;;;10.57;6.05;;;;;;;19.20;93.38;95971.69;5039709;28;21361;-70
2021/07/12 06:14:33;;;;;;;9.18;6.20;;;;;;;19.59;88.59;95985.84;5039143;28;20225;-70
2021/07/12 06:16:59;;;;;;;10.13;7.18;;;;;;;19.61;89.19;95986.44;5037581;28;20202;-70
2021/07/12 06:19:27;;;;;;;9.73;7.00;;;;;;;19.74;87.48;95983.47;5038236;28;21122;-70
2021/07/12 06:21:54;;;;;;;10.15;7.18;;;;;;;19.60;88.21;95989.34;5038489;28;20205;-70
2021/07/12 06:24:20;;;;;;;9.75;7.28;;;;;;;19.78;87.13;95984.63;5038287;28;20202;-70
2021/07/12 06:26:47;;;;;;;10.20;6.70;;;;;;;19.88;87.43;95973.28;5038018;28;20201;-70
2021/07/12 06:29:13;;;;;;;12.32;7.28;;;;;;;19.99;87.12;95980.47;5038070;28;20225;-70
2021/07/12 06:31:40;;;;;;;10.63;7.72;;;;;;;20.12;88.49;95972.94;5038785;28;20211;-70
2021/07/12 06:34:06;;;;;;;9.35;7.10;;;;;;;20.14;87.54;95973.53;5038865;28;20209;-70
2021/07/12 06:36:34;;;;;;;10.35;7.10;;;;;;;20.27;87.35;95965.19;5039013;28;20206;-70
2021/07/12 06:39:00;;;;;;;8.27;6.68;;;;;;;20.38;87.35;95953.59;5037740;28;20248;-70
2021/07/12 06:41:27;;;;;;;10.38;7.25;;;;;;;20.32;88.83;95958.03;5038864;28;20205;-70
2021/07/12 06:43:55;;;;;;;10.18;6.68;;;;;;;20.33;89.14;95964.22;5039145;28;20205;-70
2021/07/12 06:46:21;;;;;;;9.73;6.45;;;;;;;20.56;87.93;95958.69;5037231;28;20209;-70
2021/07/12 06:48:48;;;;;;;9.82;7.22;;;;;;;20.65;86.74;95959.91;5037627;28;21079;-70
2021/07/12 06:51:14;;;;;;;7.63;5.93;;;;;;;20.74;87.21;95953.09;5039495;28;20204;-70
2021/07/12 06:53:42;;;;;;;8.30;6.32;;;;;;;20.92;86.48;95957.09;5037707;28;20206;-70
2021/07/12 06:56:09;;;;;;;10.38;6.57;;;;;;;21.02;88.51;95945.72;5037726;28;20221;-70
2021/07/12 06:58:35;;;;;;;6.55;4.18;;;;;;;21.19;86.04;95941.13;5037879;28;20229;-70
2021/07/12 07:01:02;;;;;;;8.00;6.05;;;;;;;21.23;88.19;95932.34;5035601;28;21085;-69
2021/07/12 07:03:29;;;;;;;7.88;4.85;;;;;;;21.62;85.05;95923.16;5037644;28;20208;-70
2021/07/12 07:05:55;;;;;;;7.15;5.47;;;;;;;21.40;84.85;95933.06;5036915;28;20216;-69
2021/07/12 07:08:22;;;;;;;8.57;5.90;;;;;;;21.58;83.33;95938.13;5036435;28;20665;-70
2021/07/12 07:10:51;;;;;;;7.82;5.90;;;;;;;21.62;82.96;95945.41;5036942;28;20201;-70
2021/07/12 07:13:17;;;;;;;5.90;4.10;;;;;;;21.67;84.47;95929.38;5037138;28;20201;-69
2021/07/12 07:15:44;;;;;;;6.25;4.00;;;;;;;22.16;82.16;95921.00;5037216;28;20229;-69
2021/07/12 07:18:11;;;;;;;6.18;4.35;;;;;;;22.37;81.42;95927.38;5035986;28;20201;-69
2021/07/12 07:20:38;;;;;;;6.43;4.43;;;;;;;22.24;83.37;95919.72;5036372;28;20208;-69
2021/07/12 07:23:05;;;;;;;3.95;3.28;;;;;;;22.40;79.94;95914.25;5035529;28;20204;-70
2021/07/12 07:25:31;;;;;;;7.07;5.10;;;;;;;22.38;81.26;95905.63;5036377;28;20255;-69
2021/07/12 07:27:59;;;;;;;6.82;4.15;;;;;;;22.59;80.94;95910.06;5035156;28;20212;-70
2021/07/12 07:30:26;;;;;;;6.05;4.75;;;;;;;22.91;78.22;95900.03;5036188;28;20229;-69
2021/07/12 07:32:52;;;;;;;5.97;4.50;;;;;;;22.93;78.42;95905.97;5035370;28;20205;-70
2021/07/12 07:35:19;;;;;;;4.90;3.17;;;;;;;22.66;79.18;95897.22;5037280;28;20229;-69
2021/07/12 07:37:46;;;;;;;4.95;4.00;;;;;;;22.67;81.32;95894.28;5035411;28;20204;-70
2021/07/12 07:40:15;;;;;;;6.25;4.05;;;;;;;23.07;78.60;95888.34;5035988;28;20220;-70
2021/07/12 07:42:41;;;;;;;4.05;3.30;;;;;;;22.90;79.18;95876.94;5035594;28;20216;-70
2021/07/12 07:45:12;;;;;;;5.30;3.85;;;;;;;22.99;81.97;95872.72;5036721;28;20204;-70
2021/07/12 07:47:39;;;;;;;7.35;3.17;;;;;;;23.21;79.50;95870.66;5036083;28;20212;-69
2021/07/12 07:50:07;;;;;;;4.95;3.60;;;;;;;23.33;78.27;95872.84;5036202;28;20221;-70
2021/07/12 07:52:33;;;;;;;4.38;3.22;;;;;;;23.49;78.47;95863.72;5035099;28;20204;-70
2021/07/12 07:55:00;;;;;;;6.25;3.80;;;;;;;23.23;78.01;95872.00;5036472;28;20221;-69
2021/07/12 07:57:27;;;;;;;4.38;3.10;;;;;;;23.45;76.81;95859.97;5034774;28;20320;-69
2021/07/12 07:59:53;;;;;;;4.35;3.45;;;;;;;23.56;78.87;95856.22;5035366;28;20225;-69
2021/07/12 08:02:21;;;;;;;5.22;3.70;;;;;;;23.58;78.02;95854.06;5036973;28;20235;-69
2021/07/12 08:04:48;;;;;;;7.10;3.28;;;;;;;23.58;76.30;95848.69;5036793;28;20666;-70
2021/07/12 08:07:14;;;;;;;5.30;3.55;;;;;;;23.68;75.22;95848.72;5035544;28;20212;-69
2021/07/12 08:09:41;;;;;;;4.00;3.03;;;;;;;23.60;80.66;95848.41;5035377;28;20229;-69
2021/07/12 08:12:08;;;;;;;4.63;2.90;;;;;;;23.54;77.58;95853.00;5036987;28;20204;-69
2021/07/12 08:14:34;;;;;;;5.93;3.50;;;;;;;23.43;76.93;95862.13;5036451;28;20225;-69
2021/07/12 08:17:01;;;;;;;3.75;3.05;;;;;;;23.61;80.68;95861.63;5033872;28;20662;-70
2021/07/12 08:19:29;;;;;;;4.85;2.90;;;;;;;23.81;78.27;95861.66;5036696;28;20240;-69
2021/07/12 08:21:56;;;;;;;3.70;2.70;;;;;;;24.12;77.13;95844.44;5036451;28;20287;-69
2021/07/12 08:24:22;;;;;;;5.00;2.67;;;;;;;24.08;77.44;95844.19;5036168;28;20209;-74
2021/07/12 08:26:49;;;;;;;3.75;2.63;;;;;;;24.06;76.93;95834.78;5036713;28;20925;-75
2021/07/12 08:29:17;;;;;;;3.58;2.65;;;;;;;23.90;77.75;95825.06;5034989;28;20228;-72
2021/07/12 08:31:46;;;;;;;4.03;3.00;;;;;;;23.94;75.44;95821.59;5036767;28;20582;-74
2021/07/12 08:34:12;;;;;;;4.95;2.47;;;;;;;24.23;75.74;95819.13;5037071;28;21229;-73
2021/07/12 08:36:40;;;;;;;4.20;2.90;;;;;;;24.21;75.84;95811.34;5036108;28;20232;-70
2021/07/12 08:39:07;;;;;;;6.35;3.05;;;;;;;24.18;76.71;95806.47;5035738;28;20235;-70
2021/07/12 08:41:34;;;;;;;4.43;3.38;;;;;;;24.18;78.05;95816.44;5036614;28;20586;-70
2021/07/12 08:44:00;;;;;;;4.90;3.35;;;;;;;24.26;79.35;95807.81;5037048;28;20232;-70
2021/07/12 08:46:27;;;;;;;7.22;3.40;;;;;;;24.42;80.68;95799.47;5036448;28;20205;-70
2021/07/12 08:48:53;;;;;;;4.22;3.20;;;;;;;24.45;76.67;95792.72;5035802;28;20221;-70
2021/07/12 08:51:20;;;;;;;6.85;3.30;;;;;;;24.61;76.29;95798.59;5036599;28;20692;-72
2021/07/12 08:53:48;;;;;;;5.20;3.30;;;;;;;24.62;75.09;95792.13;5035929;28;20215;-72
2021/07/12 08:56:15;;;;;;;3.75;2.53;;;;;;;24.68;77.93;95790.22;5035353;28;20247;-72
2021/07/12 08:58:42;;;;;;;4.53;2.78;;;;;;;24.95;77.27;95794.19;5034999;28;20243;-72
2021/07/12 09:01:09;;;;;;;3.70;2.58;;;;;;;25.22;77.99;95791.91;5035015;28;20207;-72
2021/07/12 09:03:38;;;;;;;4.55;3.00;;;;;;;25.26;75.44;95798.38;5035652;28;20207;-72
2021/07/12 09:06:09;;;;;;;3.67;2.85;;;;;;;25.09;72.49;95805.19;5036403;28;20570;-72
2021/07/12 09:08:42;;;;;;;5.28;2.70;;;;;;;24.93;70.08;95799.03;5034771;28;20288;-72
2021/07/12 09:11:12;;;;;;;4.85;2.75;;;;;;;25.04;74.60;95787.13;5038681;28;20209;-72
2021/07/12 09:13:45;;;;;;;4.03;2.60;;;;;;;25.24;74.30;95790.56;5041313;28;20681;-72
2021/07/12 09:16:29;;;;;;;3.38;2.88;;;;;;;25.42;69.60;95797.19;5040193;28;20217;-72
2021/07/12 09:19:24;;;;;;;1.52;1.30;;;;;;;25.68;61.73;95780.53;5038770;28;20224;-72
2021/07/12 09:21:57;;;;;;;1.98;1.20;;;;;;;25.59;60.53;95787.63;5021190;28;20937;-72
2021/07/12 09:24:33;;;;;;;4.40;1.50;;;;;;;26.00;64.95;95789.75;5035702;28;20212;-72
2021/07/12 09:27:05;;;;;;;1.90;1.00;;;;;;;26.01;59.75;95790.56;5038447;28;20201;-72
2021/07/12 09:29:33;;;;;;;2.10;1.27;;;;;;;25.90;57.80;95784.47;5038368;28;20803;-72
2021/07/12 09:32:03;;;;;;;1.10;1.00;;;;;;;26.45;59.87;95787.47;5038998;28;20208;-72
2021/07/12 09:34:30;;;;;;;2.13;1.10;;;;;;;26.49;56.97;95782.31;5038620;28;20209;-73
2021/07/12 09:36:56;;;;;;;1.60;1.35;;;;;;;26.63;55.60;95783.25;5039076;28;20229;-72
2021/07/12 09:39:32;;;;;;;1.40;1.08;;;;;;;26.45;55.59;95789.34;5038189;28;20221;-73
2021/07/12 09:42:03;;;;;;;1.42;1.33;;;;;;;26.72;55.45;95795.03;5038021;28;20208;-72
2021/07/12 09:44:30;;;;;;;1.48;1.20;;;;;;;26.76;55.48;95796.06;5038426;28;20201;-72
2021/07/12 09:47:03;;;;;;;1.90;1.13;;;;;;;26.75;54.64;95787.13;5038365;28;20225;-72
2021/07/12 09:49:29;;;;;;;1.30;1.10;;;;;;;26.57;55.23;95790.56;5037862;28;20224;-72
2021/07/12 09:51:57;;;;;;;4.10;1.58;;;;;;;26.63;56.08;95794.84;5039383;28;20211;-72
2021/07/12 09:54:27;;;;;;;4.85;1.60;;;;;;;26.42;59.66;95787.22;5037979;28;20780;-72
2021/07/12 09:56:55;;;;;;;3.17;1.50;;;;;;;26.68;57.17;95796.66;5038974;28;20707;-72
2021/07/12 09:59:24;;;;;;;4.50;1.77;;;;;;;26.56;57.97;95798.97;5038981;28;20229;-72
2021/07/12 10:01:53;;;;;;;3.13;1.38;;;;;;;26.62;60.19;95793.22;5039802;28;21217;-72
2021/07/12 10:04:21;;;;;;;2.00;1.67;;;;;;;26.78;56.34;95783.03;5039419;28;20205;-72
2021/07/12 10:06:49;;;;;;;2.50;1.40;;;;;;;26.88;54.25;95783.72;5038695;28;20201;-72
2021/07/12 10:09:21;;;;;;;2.25;1.40;;;;;;;26.75;57.47;95773.59;5038415;28;20628;-72
2021/07/12 10:11:48;;;;;;;3.22;1.42;;;;;;;26.37;58.53;95773.78;5039076;28;20205;-72
2021/07/12 10:14:15;;;;;;;2.75;1.40;;;;;;;26.16;58.73;95761.53;5039241;28;20208;-72
2021/07/12 10:16:43;;;;;;;1.95;1.42;;;;;;;26.19;59.75;95763.66;5035169;28;21161;-72
2021/07/12 10:19:09;;;;;;;1.35;1.20;;;;;;;26.36;58.85;95758.63;5036768;28;20232;-72
2021/07/12 10:21:38;;;;;;;5.85;1.77;;;;;;;26.79;59.54;95765.72;5037363;28;20216;-72
2021/07/12 10:24:06;;;;;;;2.50;1.40;;;;;;;27.20;55.18;95752.25;5038765;28;20201;-73
2021/07/12 10:26:47;;;;;;;1.90;1.48;;;;;;;27.39;58.54;95755.75;5037430;28;20447;-72
2021/07/12 10:29:15;;;;;;;1.55;1.40;;;;;;;27.58;58.93;95743.03;5036888;28;20220;-73
2021/07/12 10:32:04;;;;;;;5.95;1.80;;;;;;;27.21;59.06;95734.09;5037965;28;20594;-72
2021/07/12 10:34:35;;;;;;;1.77;1.42;;;;;;;27.32;57.01;95739.06;5036959;28;20202;-72
2021/07/12 10:37:05;;;;;;;4.63;1.50;;;;;;;27.55;58.77;95727.34;5037078;28;20221;-72
2021/07/12 10:40:04;;;;;;;2.65;1.40;;;;;;;27.56;56.31;95728.16;5037317;28;20236;-72
2021/07/12 10:42:51;;;;;;;3.55;1.40;;;;;;;27.69;55.44;95722.84;5037301;28;20286;-72
2021/07/12 10:45:20;;;;;;;3.25;1.60;;;;;;;27.71;56.20;95720.63;5036979;28;20205;-72
2021/07/12 10:47:50;;;;;;;1.90;1.50;;;;;;;27.76;54.10;95712.41;5036798;28;21210;-72
2021/07/12 10:50:51;;;;;;;1.90;1.50;;;;;;;27.91;57.96;95704.03;5038033;28;20235;-72
2021/07/12 10:53:38;;;;;;;3.92;1.50;;;;;;;28.13;57.16;95706.88;4975983;28;20639;-72
2021/07/12 10:56:10;;;;;;;2.00;1.50;;;;;;;27.91;55.82;95714.88;5034175;28;20224;-72
2021/07/12 10:58:50;;;;;;;1.50;1.40;;;;;;;27.87;54.44;95711.94;5037743;28;20233;-72
2021/07/12 11:01:19;;;;;;;3.20;1.40;;;;;;;28.27;55.17;95702.31;5037953;28;20212;-72
2021/07/12 11:03:49;;;;;;;2.13;1.63;;;;;;;27.95;54.11;95715.88;5038585;28;20575;-72
2021/07/12 11:06:18;;;;;;;1.40;1.30;;;;;;;28.23;54.84;95717.59;5032835;28;20258;-72
2021/07/12 11:08:46;;;;;;;2.35;1.48;;;;;;;28.37;54.75;95719.19;5035702;28;20224;-72
2021/07/12 11:11:33;;;;;;;1.40;1.23;;;;;;;28.63;54.04;95721.13;5037134;28;20201;-72
2021/07/12 11:14:05;;;;;;;2.17;1.27;;;;;;;28.62;53.69;95724.94;5036875;28;20201;-72
2021/07/12 11:16:38;;;;;;;2.25;1.63;;;;;;;28.62;54.21;95730.34;5036671;28;20302;-72
2021/07/12 11:19:21;;;;;;;3.50;1.35;;;;;;;28.65;51.56;95718.09;5036506;28;20270;-73
2021/07/12 11:21:48;;;;;;;2.90;1.52;;;;;;;28.63;51.87;95710.28;5036699;28;20205;-72
2021/07/12 11:24:19;;;;;;;2.40;1.30;;;;;;;28.83;53.01;95707.19;5035866;28;20205;-72
2021/07/12 11:26:54;;;;;;;2.65;1.40;;;;;;;28.86;51.89;95711.19;5036473;28;20832;-72
2021/07/12 11:29:37;;;;;;;1.63;1.40;;;;;;;28.72;49.63;95722.03;5035872;28;20223;-72
2021/07/12 11:32:15;;;;;;;2.75;1.83;;;;;;;29.19;52.10;95711.53;5035625;28;20202;-72
2021/07/12 11:34:49;;;;;;;3.28;1.42;;;;;;;29.11;51.17;95703.31;5036127;28;20212;-72
2021/07/12 11:37:17;;;;;;;1.55;1.40;;;;;;;29.40;51.11;95711.91;5035100;28;20221;-71
2021/07/12 11:39:45;;;;;;;1.60;1.30;;;;;;;29.43;49.33;95701.25;5036381;28;20596;-72
2021/07/12 11:42:15;;;;;;;4.97;1.45;;;;;;;29.26;48.07;95711.91;5036665;28;20201;-72